Time;durP1;ratioP1;P1;durP2;ratioP2;P2;SDS_P1;SDS_P2;PMS_P1;PMS_P2;Temp;Humidity;BMP_temperature;BMP_pressure;BME280_temperature;BME280_humidity;BME280_pressure;Samples;Min_cycle;Max_cycle;Signal;HPM_P1;HPM_P2
2023/04/03 00:01:29;;;;;;;6.50;4.55;;;;;;;4.55;75.67;102889.94;4996027;28;20088;-63
2023/04/03 00:03:55;;;;;;;8.52;4.65;;;;;;;4.56;75.62;102891.72;4995971;28;20056;-63
2023/04/03 00:06:21;;;;;;;7.55;4.75;;;;;;;4.58;76.17;102895.34;4995534;28;20026;-62
2023/04/03 00:08:47;;;;;;;7.70;4.57;;;;;;;4.61;75.24;102899.09;4995749;28;20077;-63
2023/04/03 00:11:12;;;;;;;9.27;4.78;;;;;;;4.66;75.54;102902.00;4978712;28;20026;-63
2023/04/03 00:13:39;;;;;;;7.75;4.90;;;;;;;4.71;75.57;102903.22;5009262;28;20046;-62
2023/04/03 00:16:05;;;;;;;8.00;5.00;;;;;;;4.72;76.02;102912.94;5015609;28;20384;-62
2023/04/03 00:18:31;;;;;;;8.73;5.30;;;;;;;4.72;75.54;102907.69;4997700;28;20029;-62
2023/04/03 00:20:57;;;;;;;8.52;4.80;;;;;;;4.76;76.12;102913.22;5015492;28;20049;-63
2023/04/03 00:23:23;;;;;;;7.88;4.85;;;;;;;4.73;76.05;102906.88;5015163;28;20384;-63
2023/04/03 00:25:50;;;;;;;8.85;5.13;;;;;;;4.62;75.52;102902.59;5015043;28;20072;-62
2023/04/03 00:28:16;;;;;;;8.35;4.88;;;;;;;4.46;75.23;102901.59;5015045;28;20034;-63
2023/04/03 00:30:41;;;;;;;6.70;4.68;;;;;;;4.43;75.86;102911.84;5015289;28;20071;-63
2023/04/03 00:33:07;;;;;;;8.18;4.97;;;;;;;4.35;76.72;102914.72;5015049;28;20042;-62
2023/04/03 00:35:34;;;;;;;8.55;4.82;;;;;;;4.23;76.52;102917.38;5014876;28;20595;-63
2023/04/03 00:38:02;;;;;;;7.72;5.05;;;;;;;4.16;76.75;102913.47;5015191;28;20041;-62
2023/04/03 00:40:35;;;;;;;7.95;4.80;;;;;;;4.17;77.03;102911.75;5014890;28;20092;-63
2023/04/03 00:43:00;;;;;;;9.35;5.50;;;;;;;4.22;77.34;102920.81;5015085;28;20033;-63
2023/04/03 00:45:29;;;;;;;7.60;5.22;;;;;;;4.23;76.74;102918.28;5014688;28;20048;-62
2023/04/03 00:47:59;;;;;;;10.55;4.97;;;;;;;4.27;77.06;102919.41;5014752;28;20380;-63
2023/04/03 00:50:27;;;;;;;6.75;4.50;;;;;;;4.25;76.47;102921.94;5014998;28;20034;-63
2023/04/03 00:52:53;;;;;;;7.10;5.05;;;;;;;4.19;76.76;102918.88;5014626;28;20032;-62
2023/04/03 00:55:19;;;;;;;7.75;5.40;;;;;;;4.25;77.59;102932.41;5014666;28;20022;-63
2023/04/03 00:57:45;;;;;;;9.85;5.00;;;;;;;4.31;76.78;102925.78;5014545;28;20057;-62
2023/04/03 01:00:16;;;;;;;8.85;5.22;;;;;;;4.34;77.47;102929.53;5014443;28;20037;-62
2023/04/03 01:02:41;;;;;;;7.80;4.70;;;;;;;4.41;77.17;102926.53;5014496;28;20044;-63
2023/04/03 01:05:07;;;;;;;12.70;6.85;;;;;;;4.40;75.96;102934.25;5014451;28;20375;-63
2023/04/03 01:07:35;;;;;;;7.45;4.93;;;;;;;4.34;76.93;102929.53;5014273;28;20034;-62
2023/04/03 01:10:07;;;;;;;7.78;4.97;;;;;;;4.26;76.88;102921.13;5014504;28;20150;-62
2023/04/03 01:12:36;;;;;;;8.60;5.25;;;;;;;4.27;77.49;102933.41;5014044;28;20045;-62
2023/04/03 01:15:07;;;;;;;8.88;4.97;;;;;;;4.23;77.08;102927.84;5014209;28;20084;-62
2023/04/03 01:17:48;;;;;;;10.90;5.05;;;;;;;4.27;77.43;102930.78;5014217;28;20116;-63
2023/04/03 01:20:32;;;;;;;7.85;5.10;;;;;;;4.30;77.24;102932.72;5014362;28;20368;-63
2023/04/03 01:23:10;;;;;;;10.38;5.43;;;;;;;4.35;76.87;102939.19;4996567;28;20036;-63
2023/04/03 01:25:46;;;;;;;9.73;5.40;;;;;;;4.35;76.05;102939.19;5013937;28;20022;-62
2023/04/03 01:28:18;;;;;;;8.30;5.20;;;;;;;4.35;76.00;102936.56;5013827;28;20471;-62
2023/04/03 01:31:09;;;;;;;6.78;4.88;;;;;;;4.38;76.18;102941.13;5014156;28;20044;-63
2023/04/03 01:33:35;;;;;;;7.72;5.03;;;;;;;4.34;76.26;102936.47;5014158;28;20021;-62
2023/04/03 01:36:01;;;;;;;8.15;4.80;;;;;;;4.31;75.90;102933.63;5013940;28;20176;-63
2023/04/03 01:38:27;;;;;;;7.15;4.90;;;;;;;4.30;75.86;102940.59;5014055;28;20037;-63
2023/04/03 01:40:52;;;;;;;7.93;5.00;;;;;;;4.30;76.37;102937.06;5013806;28;20030;-63
2023/04/03 01:43:18;;;;;;;7.32;4.93;;;;;;;4.29;75.78;102936.16;5013699;28;20041;-63
2023/04/03 01:45:43;;;;;;;7.38;4.68;;;;;;;4.29;76.29;102930.03;5013871;28;20026;-63
2023/04/03 01:48:08;;;;;;;7.82;4.70;;;;;;;4.31;75.95;102931.91;4996339;28;20041;-63
2023/04/03 01:50:34;;;;;;;7.72;4.72;;;;;;;4.24;75.87;102929.69;5013859;28;20029;-62
2023/04/03 01:52:59;;;;;;;6.82;4.80;;;;;;;4.24;76.18;102937.56;5013789;28;20398;-62
2023/04/03 01:55:25;;;;;;;8.32;4.90;;;;;;;4.22;76.54;102939.13;5013533;28;20399;-63
2023/04/03 01:57:50;;;;;;;9.68;4.90;;;;;;;4.18;75.68;102943.25;5013628;28;20116;-62
2023/04/03 02:00:16;;;;;;;8.18;4.95;;;;;;;4.15;76.73;102943.00;5013504;28;20033;-62
2023/04/03 02:02:41;;;;;;;9.02;4.70;;;;;;;4.14;76.69;102948.16;5013735;28;20026;-62
2023/04/03 02:05:07;;;;;;;9.73;4.93;;;;;;;4.10;76.51;102941.78;5013221;28;20117;-63
2023/04/03 02:07:33;;;;;;;7.07;4.63;;;;;;;4.08;76.20;102946.03;5013304;28;20030;-62
2023/04/03 02:09:58;;;;;;;7.60;5.18;;;;;;;4.02;76.97;102945.56;5013309;28;20037;-63
2023/04/03 02:12:24;;;;;;;7.78;4.78;;;;;;;4.00;76.83;102940.25;5012645;28;20056;-63
2023/04/03 02:14:49;;;;;;;8.75;4.78;;;;;;;3.98;77.01;102943.53;5012976;28;20022;-62
2023/04/03 02:17:15;;;;;;;7.50;4.75;;;;;;;3.97;77.10;102946.94;5013416;28;20030;-63
2023/04/03 02:19:40;;;;;;;8.27;4.60;;;;;;;3.93;77.39;102945.81;5013187;28;20045;-63
2023/04/03 02:22:06;;;;;;;6.40;4.60;;;;;;;3.86;77.35;102935.75;5013267;28;20030;-62
2023/04/03 02:24:32;;;;;;;9.55;4.47;;;;;;;3.89;77.89;102948.09;5013190;28;20088;-63
2023/04/03 02:26:57;;;;;;;8.93;4.28;;;;;;;3.83;77.42;102940.75;5013112;28;20025;-62
2023/04/03 02:29:23;;;;;;;6.93;4.63;;;;;;;3.80;78.06;102945.75;5013046;28;20026;-63
2023/04/03 02:31:48;;;;;;;8.88;4.30;;;;;;;3.79;77.69;102943.94;4995517;28;20032;-62
2023/04/03 02:34:14;;;;;;;6.65;4.40;;;;;;;3.81;77.95;102950.16;5013094;28;20041;-62
2023/04/03 02:36:40;;;;;;;10.05;4.53;;;;;;;3.75;78.03;102949.75;5013192;28;20563;-62
2023/04/03 02:39:05;;;;;;;8.65;4.70;;;;;;;3.69;78.24;102952.84;5013097;28;20058;-62
2023/04/03 02:41:34;;;;;;;6.15;4.40;;;;;;;3.63;78.20;102960.22;5013266;28;20118;-62
2023/04/03 02:44:04;;;;;;;7.72;4.65;;;;;;;3.60;78.75;102964.31;5079482;22;20060;-67
2023/04/03 02:46:30;;;;;;;6.82;4.38;;;;;;;3.54;79.29;102961.25;5093129;28;20075;-70
2023/04/03 02:48:56;;;;;;;6.88;4.15;;;;;;;3.47;79.13;102971.28;5093142;28;20029;-68
2023/04/03 02:51:22;;;;;;;5.60;4.00;;;;;;;3.43;78.56;102968.31;5076898;28;20051;-70
2023/04/03 02:53:48;;;;;;;9.18;4.18;;;;;;;3.40;79.14;102970.69;5095971;28;20024;-68
2023/04/03 02:56:14;;;;;;;8.85;4.32;;;;;;;3.39;78.81;102958.44;5094282;28;20028;-68
2023/04/03 02:58:39;;;;;;;6.80;3.97;;;;;;;3.38;79.23;102965.34;5092981;28;20028;-68
2023/04/03 03:01:05;;;;;;;9.82;4.28;;;;;;;3.37;79.26;102971.38;5092978;28;20028;-70
2023/04/03 03:03:34;;;;;;;7.55;4.00;;;;;;;3.36;79.48;102968.66;5093306;28;20430;-67
2023/04/03 03:06:13;;;;;;;7.03;4.00;;;;;;;3.34;79.50;102970.22;5075283;28;20032;-67
2023/04/03 03:08:39;;;;;;;11.40;4.07;;;;;;;3.37;79.20;102968.75;5092640;28;20185;-68
2023/04/03 03:11:05;;;;;;;6.95;3.65;;;;;;;3.38;78.75;102967.94;5092695;28;20389;-68
2023/04/03 03:13:31;;;;;;;5.68;3.65;;;;;;;3.34;79.37;102957.16;5092510;28;20023;-68
2023/04/03 03:15:57;;;;;;;8.88;3.85;;;;;;;3.33;79.77;102960.59;5092625;28;20532;-68
2023/04/03 03:18:22;;;;;;;9.48;3.70;;;;;;;3.30;79.39;102958.66;5092656;28;20392;-68
2023/04/03 03:20:55;;;;;;;5.65;3.47;;;;;;;3.30;78.98;102958.66;5092616;28;20043;-68
2023/04/03 03:23:21;;;;;;;6.57;3.30;;;;;;;3.32;78.88;102962.28;5092795;28;20074;-68
2023/04/03 03:25:47;;;;;;;6.70;3.75;;;;;;;3.39;78.83;102966.28;5095606;28;20056;-68
2023/04/03 03:28:12;;;;;;;7.57;3.30;;;;;;;3.37;79.02;102955.69;5096231;28;20108;-68
2023/04/03 03:30:38;;;;;;;8.48;3.30;;;;;;;3.37;78.31;102965.25;5096170;28;20059;-70
2023/04/03 03:33:03;;;;;;;10.80;3.50;;;;;;;3.34;78.47;102970.22;5096170;28;20020;-68
2023/04/03 03:35:28;;;;;;;7.13;3.40;;;;;;;3.32;78.77;102972.75;5095988;28;20073;-68
2023/04/03 03:37:54;;;;;;;7.05;3.22;;;;;;;3.30;78.73;102974.34;5096191;28;20032;-68
2023/04/03 03:40:19;;;;;;;6.68;3.10;;;;;;;3.34;79.35;102971.16;5096110;28;20047;-69
2023/04/03 03:42:45;;;;;;;6.38;3.40;;;;;;;3.33;78.55;102976.25;5095965;28;20491;-68
2023/04/03 03:45:10;;;;;;;6.28;3.40;;;;;;;3.31;78.99;102975.25;5095857;28;20028;-68
2023/04/03 03:47:36;;;;;;;5.57;3.20;;;;;;;3.25;78.71;102976.63;5095997;28;20084;-68
2023/04/03 03:50:01;;;;;;;5.97;3.15;;;;;;;3.21;78.97;102982.41;5095931;28;20381;-69
2023/04/03 03:52:27;;;;;;;6.72;3.10;;;;;;;3.20;78.51;102987.50;5078021;28;20032;-68
2023/04/03 03:54:52;;;;;;;7.53;2.90;;;;;;;3.21;79.29;102986.69;5095916;28;20066;-68
2023/04/03 03:57:18;;;;;;;6.05;3.00;;;;;;;3.17;78.78;102992.47;5095789;28;20024;-68
2023/04/03 03:59:44;;;;;;;5.97;3.22;;;;;;;3.13;78.91;102986.16;5095973;28;20024;-69
2023/04/03 04:02:10;;;;;;;7.80;3.05;;;;;;;3.10;78.93;102990.22;5095688;28;20040;-69
2023/04/03 04:04:35;;;;;;;8.23;3.28;;;;;;;3.10;79.38;102992.84;5095696;28;20020;-69
2023/04/03 04:07:01;;;;;;;7.82;2.90;;;;;;;3.06;78.96;102990.78;5095294;28;20024;-69
2023/04/03 04:09:26;;;;;;;4.57;2.70;;;;;;;3.06;78.99;102993.41;5095554;28;20031;-68
2023/04/03 04:11:52;;;;;;;6.15;2.90;;;;;;;3.05;78.65;102997.72;5077191;28;20028;-69
2023/04/03 04:14:20;;;;;;;4.50;2.70;;;;;;;3.04;79.05;103000.19;5095484;28;20105;-69
2023/04/03 04:16:46;;;;;;;7.32;3.17;;;;;;;3.07;79.33;102996.13;5095612;28;20392;-69
2023/04/03 04:19:11;;;;;;;5.20;2.90;;;;;;;3.03;78.70;102994.06;5095543;28;20123;-68
2023/04/03 04:21:37;;;;;;;5.78;3.00;;;;;;;3.02;79.13;102994.88;5095507;28;20085;-68
2023/04/03 04:24:02;;;;;;;5.57;2.90;;;;;;;3.01;78.76;102999.19;5077070;28;20476;-68
2023/04/03 04:26:31;;;;;;;5.38;2.80;;;;;;;2.99;79.11;103000.75;5095158;28;20110;-70
2023/04/03 04:28:56;;;;;;;5.95;2.80;;;;;;;3.09;79.63;103004.09;5095071;28;20398;-68
2023/04/03 04:31:22;;;;;;;5.50;2.80;;;;;;;3.10;79.13;102996.34;5095062;28;20028;-69
2023/04/03 04:33:47;;;;;;;5.57;2.88;;;;;;;3.08;79.04;102995.31;5095053;28;20028;-68
2023/04/03 04:36:14;;;;;;;6.72;3.15;;;;;;;3.06;78.79;102993.41;5075900;28;20115;-68
2023/04/03 04:38:39;;;;;;;3.97;2.75;;;;;;;3.01;78.74;102988.72;5094933;28;20060;-69
2023/04/03 04:41:05;;;;;;;4.75;2.90;;;;;;;2.99;78.90;102997.22;5094820;28;20458;-69
2023/04/03 04:43:30;;;;;;;5.82;2.92;;;;;;;2.97;79.44;102991.91;5094159;28;20123;-69
2023/04/03 04:46:10;;;;;;;6.45;3.40;;;;;;;2.96;79.54;102997.03;5094817;28;20033;-69
2023/04/03 04:48:35;;;;;;;5.72;3.00;;;;;;;2.86;79.82;102999.72;5094778;28;20115;-69
2023/04/03 04:51:02;;;;;;;6.78;2.95;;;;;;;2.83;79.87;103005.63;5094704;28;20111;-69
2023/04/03 04:53:27;;;;;;;7.45;2.90;;;;;;;2.84;80.97;103006.53;5094965;28;20054;-69
2023/04/03 04:55:53;;;;;;;9.23;3.13;;;;;;;2.86;80.05;103008.44;5094581;28;20057;-69
2023/04/03 04:58:18;;;;;;;4.63;2.80;;;;;;;2.80;79.75;103010.59;5094445;28;20020;-69
2023/04/03 05:00:44;;;;;;;7.43;3.13;;;;;;;2.77;80.38;103018.19;5094475;28;20469;-69
2023/04/03 05:03:10;;;;;;;11.05;2.97;;;;;;;2.72;80.25;103020.44;5086135;28;20036;-68
2023/04/03 05:05:35;;;;;;;5.82;2.90;;;;;;;2.72;80.10;103020.44;5076153;28;20032;-69
2023/04/03 05:08:01;;;;;;;7.88;2.88;;;;;;;2.72;79.83;103015.22;5076364;28;20032;-68
2023/04/03 05:10:27;;;;;;;5.60;2.80;;;;;;;2.68;79.59;103015.78;5094445;28;20028;-69
2023/04/03 05:12:52;;;;;;;6.22;2.63;;;;;;;2.66;80.14;103026.91;5076042;28;20051;-69
2023/04/03 05:15:18;;;;;;;4.10;2.70;;;;;;;2.68;80.31;103025.31;5094171;28;20044;-69
2023/04/03 05:17:46;;;;;;;6.55;2.97;;;;;;;2.66;80.56;103025.19;5094223;28;20028;-69
2023/04/03 05:20:12;;;;;;;8.60;2.83;;;;;;;2.64;80.20;103025.88;5094025;28;20035;-69
2023/04/03 05:22:37;;;;;;;7.45;3.28;;;;;;;2.62;80.22;103032.69;5094061;28;20028;-69
2023/04/03 05:25:03;;;;;;;6.55;2.78;;;;;;;2.60;80.38;103019.50;5093999;28;20103;-68
2023/04/03 05:27:29;;;;;;;7.05;3.70;;;;;;;2.58;81.13;103033.22;5093777;28;20032;-70
2023/04/03 05:29:55;;;;;;;12.55;5.32;;;;;;;2.57;81.21;103028.78;5093923;28;20366;-70
2023/04/03 05:32:21;;;;;;;12.32;7.38;;;;;;;2.60;81.03;103034.25;5094135;28;20526;-70
2023/04/03 05:34:47;;;;;;;9.73;5.60;;;;;;;2.65;80.63;103038.13;5094101;28;20028;-70
2023/04/03 05:37:12;;;;;;;12.27;7.20;;;;;;;2.72;80.69;103037.81;5093471;28;20381;-70
2023/04/03 05:39:40;;;;;;;6.97;4.50;;;;;;;2.82;80.38;103039.41;5093785;28;20031;-70
2023/04/03 05:42:06;;;;;;;10.10;4.50;;;;;;;2.95;80.10;103037.88;5093661;28;20503;-71
2023/04/03 05:44:31;;;;;;;8.50;3.55;;;;;;;3.04;79.66;103045.53;5093454;28;20503;-70
2023/04/03 05:46:57;;;;;;;6.05;3.80;;;;;;;3.15;79.48;103043.72;5093492;28;20039;-69
2023/04/03 05:49:22;;;;;;;9.38;3.67;;;;;;;3.28;78.91;103043.84;5092877;28;20067;-69
2023/04/03 05:51:47;;;;;;;5.03;3.20;;;;;;;3.37;78.35;103044.53;5093794;28;20028;-69
2023/04/03 05:54:20;;;;;;;5.80;2.85;;;;;;;3.49;78.68;103040.22;5093520;28;20506;-69
2023/04/03 05:56:46;;;;;;;4.78;2.67;;;;;;;3.59;78.06;103041.81;5093579;28;20020;-69
2023/04/03 05:59:11;;;;;;;8.65;3.90;;;;;;;3.71;76.99;103053.19;5093426;28;20024;-70
2023/04/03 06:01:37;;;;;;;7.13;3.65;;;;;;;3.79;76.99;103040.69;5093338;28;20024;-69
2023/04/03 06:04:03;;;;;;;6.13;2.90;;;;;;;3.90;76.04;103047.63;5093582;28;20477;-68
2023/04/03 06:06:48;;;;;;;6.20;2.70;;;;;;;4.01;75.87;103051.00;5093158;28;20081;-68
2023/04/03 06:09:15;;;;;;;7.55;3.30;;;;;;;4.03;75.58;103045.91;5093530;28;20036;-69
2023/04/03 06:11:42;;;;;;;9.85;2.78;;;;;;;4.10;75.38;103050.75;5093531;28;20036;-69
2023/04/03 06:14:08;;;;;;;5.50;2.97;;;;;;;4.26;74.55;103051.97;5093112;28;20059;-69
2023/04/03 06:16:34;;;;;;;10.68;2.80;;;;;;;4.40;74.54;103050.34;5093217;28;20448;-69
2023/04/03 06:18:59;;;;;;;5.85;2.90;;;;;;;4.48;73.86;103057.03;5093273;28;20111;-69
2023/04/03 06:21:25;;;;;;;6.78;2.80;;;;;;;4.58;73.99;103057.69;5093129;28;20030;-70
2023/04/03 06:23:51;;;;;;;6.45;2.88;;;;;;;4.66;73.07;103060.03;5093087;28;20024;-70
2023/04/03 06:26:17;;;;;;;5.07;2.80;;;;;;;4.78;72.92;103060.00;5093003;28;20126;-70
2023/04/03 06:28:42;;;;;;;7.72;2.88;;;;;;;4.89;71.64;103071.22;5092949;28;20107;-70
2023/04/03 06:31:08;;;;;;;6.03;2.70;;;;;;;5.03;72.42;103066.13;5074782;28;20024;-69
2023/04/03 06:33:34;;;;;;;4.93;2.45;;;;;;;5.14;71.35;103072.13;5093048;28;20381;-69
2023/04/03 06:36:03;;;;;;;7.70;2.80;;;;;;;5.22;70.17;103073.56;5075089;28;20020;-69
2023/04/03 06:38:29;;;;;;;5.50;2.67;;;;;;;5.33;70.50;103071.66;5093443;28;20115;-69
2023/04/03 06:40:55;;;;;;;4.93;2.42;;;;;;;5.43;69.74;103071.44;5092998;28;20111;-69
2023/04/03 06:43:21;;;;;;;9.60;2.53;;;;;;;5.31;69.34;103057.53;5092776;28;20036;-70
2023/04/03 06:45:46;;;;;;;7.30;2.75;;;;;;;5.46;69.02;103071.66;5092994;28;20028;-69
2023/04/03 06:48:12;;;;;;;6.47;2.78;;;;;;;5.53;69.38;103067.75;5074447;28;20028;-69
2023/04/03 06:50:38;;;;;;;7.20;3.05;;;;;;;5.66;69.92;103075.63;5092911;28;20377;-69
2023/04/03 06:53:03;;;;;;;5.93;2.60;;;;;;;5.82;68.85;103084.50;5092845;28;20111;-70
2023/04/03 06:55:29;;;;;;;7.47;2.67;;;;;;;5.95;66.95;103082.84;5092953;28;20039;-70
2023/04/03 06:57:55;;;;;;;6.25;2.70;;;;;;;6.12;69.75;103086.53;5092582;28;20025;-69
2023/04/03 07:00:20;;;;;;;8.25;2.67;;;;;;;6.28;67.76;103085.81;5095745;28;20103;-69
2023/04/03 07:02:46;;;;;;;9.73;4.53;;;;;;;6.42;65.76;103089.31;5078731;28;20453;-69
2023/04/03 07:05:12;;;;;;;7.68;3.10;;;;;;;6.45;66.05;103095.69;5096488;28;20024;-69
2023/04/03 07:07:38;;;;;;;6.20;2.80;;;;;;;6.59;64.86;103095.63;5096569;28;20020;-69
2023/04/03 07:10:06;;;;;;;8.05;2.42;;;;;;;6.66;63.92;103096.13;5096618;28;20020;-69
2023/04/03 07:12:31;;;;;;;6.93;2.95;;;;;;;6.70;64.00;103095.50;5096302;28;20036;-69
2023/04/03 07:14:57;;;;;;;7.65;2.92;;;;;;;6.81;64.19;103095.25;5096459;28;20055;-69
2023/04/03 07:17:22;;;;;;;6.05;2.72;;;;;;;6.97;64.98;103093.66;5078392;28;20024;-69
2023/04/03 07:19:48;;;;;;;5.78;2.72;;;;;;;7.25;64.31;103103.25;5096445;28;20024;-69
2023/04/03 07:22:13;;;;;;;8.88;2.50;;;;;;;7.45;64.34;103099.16;5096386;28;20114;-69
2023/04/03 07:24:39;;;;;;;5.82;2.60;;;;;;;7.64;63.11;103094.19;5096364;28;20397;-69
2023/04/03 07:27:05;;;;;;;7.22;2.70;;;;;;;7.74;61.45;103101.81;5096573;28;20027;-69
2023/04/03 07:29:31;;;;;;;5.72;2.65;;;;;;;7.75;59.32;103108.91;5096409;28;20035;-69
2023/04/03 07:31:57;;;;;;;6.10;2.78;;;;;;;7.82;59.51;103103.97;5096140;28;20442;-69
2023/04/03 07:34:22;;;;;;;5.88;2.60;;;;;;;7.92;59.28;103104.63;5096237;28;20028;-69
2023/04/03 07:36:47;;;;;;;8.20;3.53;;;;;;;8.10;60.30;103102.13;5078614;28;20032;-69
2023/04/03 07:39:14;;;;;;;7.25;2.60;;;;;;;8.29;59.17;103110.22;5096060;28;20095;-69
2023/04/03 07:41:40;;;;;;;5.93;2.58;;;;;;;8.37;58.28;103115.06;5095935;28;20491;-69
2023/04/03 07:44:05;;;;;;;5.50;2.58;;;;;;;8.52;59.38;103118.53;5095811;28;20044;-69
2023/04/03 07:46:31;;;;;;;5.47;2.55;;;;;;;8.77;59.77;103107.63;5095857;28;20075;-68
2023/04/03 07:48:57;;;;;;;5.13;2.67;;;;;;;9.01;57.05;103114.22;5077882;28;20553;-69
2023/04/03 07:51:23;;;;;;;9.40;3.05;;;;;;;9.22;55.27;103114.47;5095700;28;20016;-69
2023/04/03 07:53:49;;;;;;;5.47;2.60;;;;;;;9.28;54.31;103120.06;5095970;28;20103;-69
2023/04/03 07:56:14;;;;;;;5.03;2.50;;;;;;;9.49;57.09;103115.00;5095857;28;20173;-68
2023/04/03 07:58:40;;;;;;;6.50;2.65;;;;;;;9.56;54.46;103110.03;5095591;28;20041;-69
2023/04/03 08:01:05;;;;;;;5.50;2.67;;;;;;;9.65;53.90;103118.44;5095267;28;20024;-72
2023/04/03 08:03:31;;;;;;;6.82;2.78;;;;;;;9.65;55.28;103110.50;5095868;28;20024;-72
2023/04/03 08:06:03;;;;;;;7.68;2.72;;;;;;;9.78;54.57;103116.47;5095242;28;20073;-71
2023/04/03 08:08:29;;;;;;;8.03;2.63;;;;;;;10.05;54.00;103116.03;5095548;28;20035;-68
2023/04/03 08:10:57;;;;;;;7.85;2.42;;;;;;;10.31;52.70;103119.06;5076693;28;20273;-68
2023/04/03 08:13:23;;;;;;;5.45;2.60;;;;;;;10.33;51.88;103122.72;5095282;28;20028;-68
2023/04/03 08:15:49;;;;;;;7.97;2.75;;;;;;;10.36;50.42;103128.13;5095569;28;20438;-68
2023/04/03 08:18:15;;;;;;;6.25;2.78;;;;;;;10.40;51.83;103114.22;5095314;28;20020;-68
2023/04/03 08:20:41;;;;;;;6.00;2.53;;;;;;;10.55;49.11;103117.63;5095221;28;20024;-68
2023/04/03 08:23:08;;;;;;;6.25;2.72;;;;;;;10.66;49.11;103129.63;5095131;28;20507;-68
2023/04/03 08:25:37;;;;;;;6.65;2.40;;;;;;;10.77;48.52;103119.53;5095454;28;20111;-68
2023/04/03 08:28:03;;;;;;;6.72;2.70;;;;;;;10.80;49.60;103117.03;5094628;28;20496;-67
2023/04/03 08:30:28;;;;;;;5.45;2.35;;;;;;;10.91;48.91;103117.50;5094962;28;20028;-67
2023/04/03 08:32:54;;;;;;;8.75;2.83;;;;;;;10.94;48.84;103115.00;5095079;28;20030;-66
2023/04/03 08:35:20;;;;;;;4.95;2.53;;;;;;;11.22;49.65;103122.44;5094630;28;20039;-66
2023/04/03 08:37:45;;;;;;;4.85;2.38;;;;;;;11.42;47.24;103121.56;5094898;28;20028;-66
2023/04/03 08:40:15;;;;;;;6.65;2.70;;;;;;;11.28;44.79;103123.63;5094430;28;20126;-69
2023/04/03 08:42:56;;;;;;;3.97;2.42;;;;;;;11.32;46.28;103121.13;5094792;28;20443;-69
2023/04/03 08:45:43;;;;;;;5.93;2.30;;;;;;;11.21;44.63;103120.63;5094550;28;20517;-67
2023/04/03 08:48:20;;;;;;;5.80;2.45;;;;;;;11.33;46.58;103118.53;5095151;28;20028;-68
2023/04/03 08:50:51;;;;;;;4.75;2.22;;;;;;;11.33;44.53;103122.91;5095057;28;20024;-67
2023/04/03 08:53:32;;;;;;;4.30;2.03;;;;;;;11.45;44.45;103128.75;5094956;28;20107;-68
2023/04/03 08:55:58;;;;;;;8.10;2.40;;;;;;;11.68;43.35;103130.66;5094632;28;20059;-66
2023/04/03 08:58:40;;;;;;;6.50;2.47;;;;;;;11.95;42.64;103132.72;5094312;28;20470;-66
2023/04/03 09:01:26;;;;;;;3.70;2.00;;;;;;;12.08;42.22;103129.72;5094687;28;20032;-67
2023/04/03 09:03:51;;;;;;;4.18;2.10;;;;;;;12.13;40.36;103133.47;5094556;28;20035;-67
2023/04/03 09:06:23;;;;;;;5.40;2.17;;;;;;;12.23;40.96;103119.72;5094409;28;20020;-66
2023/04/03 09:09:33;;;;;;;4.87;2.30;;;;;;;12.42;40.55;103129.34;5094418;28;20393;-66
2023/04/03 09:12:09;;;;;;;3.95;2.08;;;;;;;12.33;36.88;103130.69;5090996;28;20036;-67
2023/04/03 09:14:52;;;;;;;5.40;2.35;;;;;;;12.31;38.44;103130.66;5094327;28;20069;-66
2023/04/03 09:17:43;;;;;;;3.72;2.13;;;;;;;12.38;36.79;103132.72;5094182;28;20043;-65
2023/04/03 09:20:30;;;;;;;4.80;2.05;;;;;;;12.36;38.90;103126.44;5094432;28;20024;-65
2023/04/03 09:22:58;;;;;;;3.60;2.03;;;;;;;12.44;36.38;103134.69;5093838;28;20107;-66
2023/04/03 09:25:34;;;;;;;4.18;1.80;;;;;;;12.62;36.51;103132.75;5093809;28;20052;-66
2023/04/03 09:28:01;;;;;;;5.03;1.98;;;;;;;12.68;34.06;103127.72;5094367;28;20052;-66
2023/04/03 09:30:37;;;;;;;4.03;2.08;;;;;;;12.85;36.22;103132.72;5093899;28;20404;-66
2023/04/03 09:33:03;;;;;;;4.90;2.10;;;;;;;12.85;34.88;103135.38;5093926;28;20032;-66
2023/04/03 09:35:32;;;;;;;4.07;2.00;;;;;;;13.01;33.94;103130.72;5094015;28;20021;-67
2023/04/03 09:38:00;;;;;;;3.40;1.80;;;;;;;13.16;32.00;103137.47;5093707;28;20536;-67
2023/04/03 09:40:26;;;;;;;5.05;2.08;;;;;;;13.36;32.76;103122.25;5094076;28;20171;-67
2023/04/03 09:42:53;;;;;;;3.75;2.20;;;;;;;13.19;31.24;103132.25;5093898;28;20437;-67
2023/04/03 09:45:27;;;;;;;4.15;1.95;;;;;;;13.35;32.42;103110.75;5093629;28;20493;-67
2023/04/03 09:48:12;;;;;;;5.85;1.70;;;;;;;13.35;32.61;103113.41;5093592;28;20035;-67
2023/04/03 09:50:38;;;;;;;4.03;1.77;;;;;;;13.42;30.95;103112.78;5093639;28;20028;-67
2023/04/03 09:53:07;;;;;;;2.53;1.65;;;;;;;13.50;30.06;103121.91;5093568;28;20561;-67
2023/04/03 09:55:42;;;;;;;4.60;1.60;;;;;;;13.49;30.69;103112.16;5093595;28;20032;-68
2023/04/03 09:58:25;;;;;;;3.47;1.60;;;;;;;13.58;30.11;103114.22;5093519;28;20481;-66
2023/04/03 10:00:59;;;;;;;2.90;1.40;;;;;;;13.33;28.87;103103.59;5093515;28;20046;-66
2023/04/03 10:03:35;;;;;;;4.35;1.83;;;;;;;13.10;29.55;103097.41;5075215;28;20024;-66
2023/04/03 10:06:03;;;;;;;1.90;1.40;;;;;;;12.66;28.47;103104.59;5093228;28;20036;-66
2023/04/03 10:08:34;;;;;;;2.40;1.48;;;;;;;12.66;29.23;103100.19;5075585;28;20069;-66
2023/04/03 10:11:15;;;;;;;2.65;1.52;;;;;;;12.65;29.62;103087.78;5093533;28;20020;-66
2023/04/03 10:13:51;;;;;;;2.10;1.67;;;;;;;13.03;32.50;103093.63;5075346;28;20520;-66
2023/04/03 10:16:27;;;;;;;3.13;1.50;;;;;;;13.23;31.08;103091.72;5093417;28;20426;-66
2023/04/03 10:19:04;;;;;;;3.33;1.63;;;;;;;13.31;27.88;103092.00;5093349;28;20028;-66
2023/04/03 10:21:43;;;;;;;2.75;1.40;;;;;;;13.48;29.54;103097.03;5093546;28;20030;-66
2023/04/03 10:24:20;;;;;;;2.95;1.80;;;;;;;13.56;28.19;103099.06;5093305;28;20032;-66
2023/04/03 10:27:02;;;;;;;2.67;1.65;;;;;;;13.44;27.17;103087.16;5093106;28;20472;-66
2023/04/03 10:29:34;;;;;;;1.87;1.47;;;;;;;13.52;27.72;103096.31;5093100;28;20024;-67
2023/04/03 10:32:16;;;;;;;3.13;1.70;;;;;;;13.59;26.79;103085.91;5093190;28;20036;-66
2023/04/03 10:34:45;;;;;;;3.65;1.60;;;;;;;13.58;26.46;103085.00;5097095;28;20035;-67
2023/04/03 10:37:21;;;;;;;2.28;1.52;;;;;;;13.58;26.40;103078.78;5099699;28;20028;-67
2023/04/03 10:40:01;;;;;;;3.15;1.48;;;;;;;13.50;26.47;103063.50;5081643;28;20388;-66
2023/04/03 10:42:39;;;;;;;3.75;1.30;;;;;;;13.52;27.71;103069.75;5099992;28;20089;-67
2023/04/03 10:45:26;;;;;;;2.88;1.55;;;;;;;13.64;26.36;103055.97;5099391;28;20135;-67
2023/04/03 10:48:28;;;;;;;3.05;1.33;;;;;;;13.66;26.45;103062.25;5099930;28;20036;-67
2023/04/03 10:51:12;;;;;;;3.13;1.60;;;;;;;13.75;26.30;103054.59;5099816;28;20473;-67
2023/04/03 10:54:07;;;;;;;4.05;1.75;;;;;;;13.56;27.37;103046.84;5099768;28;20028;-67
2023/04/03 10:56:51;;;;;;;2.88;1.42;;;;;;;13.66;27.24;103056.00;5099658;28;20024;-67
2023/04/03 10:59:26;;;;;;;3.03;1.50;;;;;;;13.71;24.91;103052.69;5099557;28;20153;-67
2023/04/03 11:01:56;;;;;;;3.45;1.73;;;;;;;13.86;25.52;103054.03;5099555;28;20067;-67
2023/04/03 11:04:27;;;;;;;2.30;1.58;;;;;;;13.77;25.89;103055.53;5099635;28;20031;-67
2023/04/03 11:07:09;;;;;;;2.83;1.90;;;;;;;13.88;25.32;103052.34;5099558;28;20020;-67
2023/04/03 11:09:39;;;;;;;2.58;1.60;;;;;;;14.01;26.57;103038.59;5099908;28;20024;-67
2023/04/03 11:12:12;;;;;;;5.95;1.70;;;;;;;14.28;26.53;103041.19;5099437;28;20028;-67
2023/04/03 11:14:39;;;;;;;3.20;1.55;;;;;;;14.39;26.28;103037.13;5099221;28;20077;-67
2023/04/03 11:17:22;;;;;;;1.77;1.27;;;;;;;14.74;25.88;103030.19;5099350;28;20051;-66
2023/04/03 11:19:57;;;;;;;2.88;1.70;;;;;;;14.71;25.94;103034.53;5099492;28;20488;-66
2023/04/03 11:22:28;;;;;;;3.97;1.60;;;;;;;14.62;26.05;103026.28;5100423;28;20028;-66
2023/04/03 11:25:22;;;;;;;2.40;1.75;;;;;;;14.63;25.75;103026.31;5099766;28;20028;-66
2023/04/03 11:28:01;;;;;;;1.80;1.52;;;;;;;14.43;25.83;103022.13;5098981;28;20028;-66
2023/04/03 11:30:50;;;;;;;2.30;1.60;;;;;;;14.40;26.36;103004.34;5099659;28;20024;-66
2023/04/03 11:33:21;;;;;;;2.08;1.50;;;;;;;14.55;25.74;103014.53;5057758;28;20046;-66
2023/04/03 11:35:51;;;;;;;2.67;1.60;;;;;;;14.51;25.45;103021.53;5099166;28;20028;-66
2023/04/03 11:38:26;;;;;;;2.53;1.60;;;;;;;14.33;26.16;102997.00;5099766;28;20385;-67
2023/04/03 11:40:54;;;;;;;2.40;1.50;;;;;;;14.34;25.58;103004.13;5099170;28;20028;-66